createdAt,value
2022-08-29T00:00:19.349Z,14.80
2022-08-29T00:03:23.083Z,14.76
2022-08-29T00:06:29.395Z,14.75
2022-08-29T00:09:33.421Z,14.67
2022-08-29T00:12:37.407Z,14.64
2022-08-29T00:15:45.133Z,14.56
2022-08-29T00:18:49.108Z,14.51
2022-08-29T00:21:54.152Z,14.49
2022-08-29T00:25:02.725Z,14.46
2022-08-29T00:28:07.552Z,14.43
2022-08-29T00:31:11.320Z,14.39
2022-08-29T00:34:15.050Z,14.33
2022-08-29T00:37:20.474Z,14.29
2022-08-29T00:40:29.245Z,14.24
2022-08-29T00:43:37.668Z,14.20
2022-08-29T00:46:53.892Z,14.15
2022-08-29T00:49:58.973Z,14.11
2022-08-29T00:53:09.582Z,14.05
2022-08-29T00:56:17.460Z,13.97
2022-08-29T00:59:26.117Z,13.91
2022-08-29T01:02:31.398Z,13.80
2022-08-29T01:05:37.638Z,13.74
2022-08-29T01:08:44.561Z,13.71
2022-08-29T01:12:05.736Z,13.67
2022-08-29T01:15:13.641Z,13.64
2022-08-29T01:18:19.596Z,13.60
2022-08-29T01:21:35.644Z,13.62
2022-08-29T01:24:46.291Z,13.59
2022-08-29T01:27:55.990Z,13.58
2022-08-29T01:31:06.793Z,13.54
2022-08-29T01:34:12.979Z,13.47
2022-08-29T01:37:18.796Z,13.43
2022-08-29T01:40:31.614Z,13.40
2022-08-29T01:43:44.412Z,13.37
2022-08-29T01:46:51.199Z,13.36
2022-08-29T01:49:55.282Z,13.36
2022-08-29T01:52:59.091Z,13.31
2022-08-29T01:56:12.217Z,13.25
2022-08-29T01:59:20.120Z,13.21
2022-08-29T02:02:28.771Z,13.24
2022-08-29T02:05:33.071Z,13.24
2022-08-29T02:08:37.187Z,13.21
2022-08-29T02:11:42.498Z,13.20
2022-08-29T02:14:46.446Z,13.25
2022-08-29T02:17:50.455Z,13.28
2022-08-29T02:20:54.095Z,13.27
2022-08-29T02:24:15.914Z,13.29
2022-08-29T02:27:26.352Z,13.27
2022-08-29T02:30:29.915Z,13.29
2022-08-29T02:33:35.160Z,13.31
2022-08-29T02:36:39.150Z,13.29
2022-08-29T02:39:45.143Z,13.32
2022-08-29T02:42:50.098Z,13.32
2022-08-29T02:45:54.701Z,13.37
2022-08-29T02:49:01.047Z,13.41
2022-08-29T02:52:06.775Z,13.46
2022-08-29T02:55:15.512Z,13.50
2022-08-29T02:58:22.655Z,13.47
2022-08-29T03:01:27.604Z,13.46
2022-08-29T03:04:31.290Z,13.45
2022-08-29T03:07:34.979Z,13.48
2022-08-29T03:10:39.098Z,13.47
2022-08-29T03:13:44.335Z,13.50
2022-08-29T03:16:48.573Z,13.54
2022-08-29T03:19:52.283Z,13.57
2022-08-29T03:22:56.953Z,13.57
2022-08-29T03:26:00.637Z,13.59
2022-08-29T03:29:06.981Z,13.61
2022-08-29T03:32:10.755Z,13.63
2022-08-29T03:35:18.089Z,13.65
2022-08-29T03:38:22.811Z,13.65
2022-08-29T03:41:29.952Z,13.60
2022-08-29T03:44:36.171Z,13.60
2022-08-29T03:47:39.847Z,13.60
2022-08-29T03:50:43.944Z,13.64
2022-08-29T03:53:48.008Z,13.62
2022-08-29T03:56:52.065Z,13.60
2022-08-29T03:59:57.976Z,13.62
2022-08-29T04:03:02.156Z,13.63
2022-08-29T04:06:06.322Z,13.64
2022-08-29T04:09:09.898Z,13.64
2022-08-29T04:12:14.612Z,13.65
2022-08-29T04:15:20.208Z,13.63
2022-08-29T04:18:23.874Z,13.63
2022-08-29T04:21:27.534Z,13.64
2022-08-29T04:24:32.850Z,13.61
2022-08-29T04:27:37.586Z,13.64
2022-08-29T04:30:51.447Z,13.63
2022-08-29T04:33:55.556Z,13.69
2022-08-29T04:37:00.136Z,13.72
2022-08-29T04:40:04.597Z,13.80
2022-08-29T04:43:08.390Z,13.85
2022-08-29T04:46:23.499Z,13.92
2022-08-29T04:49:27.972Z,13.96
2022-08-29T04:52:31.823Z,14.00
2022-08-29T04:55:35.543Z,14.04
2022-08-29T04:58:44.065Z,14.08
2022-08-29T05:01:49.369Z,14.20
2022-08-29T05:04:53.635Z,14.17
2022-08-29T05:07:57.331Z,14.15
2022-08-29T05:11:01.494Z,14.07
2022-08-29T05:14:05.393Z,14.02
2022-08-29T05:17:10.447Z,14.08
2022-08-29T05:20:14.898Z,14.04
2022-08-29T05:23:20.508Z,14.19
2022-08-29T05:26:24.135Z,14.36
2022-08-29T05:29:27.850Z,14.36
2022-08-29T05:32:33.191Z,14.34
2022-08-29T05:35:37.620Z,14.43
2022-08-29T05:38:41.316Z,14.30
2022-08-29T05:41:45.041Z,14.40
2022-08-29T05:44:49.318Z,14.33
2022-08-29T05:47:56.377Z,14.38
2022-08-29T05:51:01.002Z,14.48
2022-08-29T05:54:05.451Z,14.51
2022-08-29T05:57:16.687Z,14.54
2022-08-29T06:00:22.873Z,14.66
2022-08-29T06:03:28.108Z,14.72
2022-08-29T06:06:32.143Z,14.83
2022-08-29T06:09:37.082Z,14.85
2022-08-29T06:12:40.803Z,14.97
2022-08-29T06:15:46.442Z,15.01
2022-08-29T06:18:52.191Z,15.11
2022-08-29T06:21:57.248Z,15.09
2022-08-29T06:25:04.161Z,15.19
2022-08-29T06:28:15.940Z,15.19
2022-08-29T06:31:29.597Z,15.30
2022-08-29T06:34:34.935Z,15.40
2022-08-29T06:37:38.542Z,15.46
2022-08-29T06:40:42.333Z,15.64
2022-08-29T06:43:46.687Z,15.73
2022-08-29T06:46:51.631Z,15.81
2022-08-29T06:49:56.872Z,15.97
2022-08-29T06:53:14.740Z,16.18
2022-08-29T06:56:24.188Z,16.27
2022-08-29T06:59:30.384Z,16.46
2022-08-29T07:02:34.182Z,16.48
2022-08-29T07:05:39.529Z,16.63
2022-08-29T07:08:55.748Z,16.88
2022-08-29T07:11:59.885Z,16.82
2022-08-29T07:15:03.563Z,16.84
2022-08-29T07:18:07.299Z,16.98
2022-08-29T07:21:21.018Z,16.93
2022-08-29T07:24:25.138Z,17.08
2022-08-29T07:27:28.974Z,17.20
2022-08-29T07:30:33.618Z,17.19
2022-08-29T07:33:38.457Z,17.38
2022-08-29T07:36:43.669Z,17.66
2022-08-29T07:39:47.503Z,17.74
2022-08-29T07:42:51.169Z,17.82
2022-08-29T07:45:55.565Z,17.69
2022-08-29T07:49:00.682Z,17.83
2022-08-29T07:52:06.229Z,17.79
2022-08-29T07:55:11.250Z,17.87
2022-08-29T07:58:15.126Z,18.02
2022-08-29T08:01:21.137Z,18.15
2022-08-29T08:04:25.597Z,18.55
2022-08-29T08:07:33.045Z,18.65
2022-08-29T08:10:40.020Z,18.90
2022-08-29T08:13:44.425Z,19.17
2022-08-29T08:16:48.153Z,19.10
2022-08-29T08:19:52.055Z,19.37
2022-08-29T08:22:57.420Z,19.10
2022-08-29T08:26:02.151Z,19.02
2022-08-29T08:29:06.357Z,18.96
2022-08-29T08:32:10.026Z,18.88
2022-08-29T08:35:16.414Z,19.10
2022-08-29T08:38:22.764Z,19.81
2022-08-29T08:41:51.618Z,19.76
2022-08-29T08:45:07.759Z,20.10
2022-08-29T08:48:19.532Z,19.71
2022-08-29T08:51:30.150Z,19.45
2022-08-29T08:54:45.334Z,19.68
2022-08-29T08:58:02.339Z,19.81
2022-08-29T09:01:21.610Z,20.14
2022-08-29T09:04:58.631Z,20.44
2022-08-29T09:08:19.097Z,20.15
2022-08-29T09:11:36.861Z,20.08
2022-08-29T09:15:02.343Z,20.17
2022-08-29T09:18:13.554Z,20.13
2022-08-29T09:21:39.938Z,20.10
2022-08-29T09:24:50.782Z,19.95
2022-08-29T09:27:56.229Z,20.67
2022-08-29T09:31:26.709Z,21.18
2022-08-29T09:35:04.479Z,20.98
2022-08-29T09:38:08.998Z,20.42
2022-08-29T09:41:12.925Z,19.99
2022-08-29T09:44:28.149Z,20.20
2022-08-29T09:47:34.352Z,20.02
2022-08-29T09:50:38.271Z,19.95
2022-08-29T09:53:42.824Z,20.25
2022-08-29T09:56:54.727Z,20.11
2022-08-29T10:00:14.875Z,20.22
2022-08-29T10:03:24.659Z,20.62
2022-08-29T10:06:32.229Z,20.97
2022-08-29T10:09:36.038Z,20.64
2022-08-29T10:12:53.117Z,20.66
2022-08-29T10:16:15.046Z,20.68
2022-08-29T10:19:33.236Z,20.56
2022-08-29T10:22:47.481Z,20.69
2022-08-29T10:25:51.856Z,20.59
2022-08-29T10:29:11.519Z,20.85
2022-08-29T10:32:36.262Z,20.76
2022-08-29T10:35:54.434Z,20.70
2022-08-29T10:39:12.439Z,20.80
2022-08-29T10:42:19.500Z,20.79
2022-08-29T10:45:36.407Z,20.84
2022-08-29T10:48:51.613Z,21.26
2022-08-29T10:52:10.824Z,21.30
2022-08-29T10:55:33.003Z,20.95
2022-08-29T10:59:00.076Z,21.17
2022-08-29T11:02:12.699Z,21.25
2022-08-29T11:05:25.846Z,21.14
2022-08-29T11:08:39.105Z,20.78
2022-08-29T11:11:56.822Z,21.12
2022-08-29T11:15:07.318Z,21.38
2022-08-29T11:18:24.982Z,21.24
2022-08-29T11:21:38.794Z,21.40
2022-08-29T11:24:47.299Z,21.32
2022-08-29T11:28:04.091Z,21.24
2022-08-29T11:31:19.404Z,21.75
2022-08-29T11:34:45.131Z,21.96
2022-08-29T11:38:42.407Z,21.35
2022-08-29T11:41:51.626Z,21.50
2022-08-29T11:45:01.344Z,21.78
2022-08-29T11:48:30.724Z,21.53
2022-08-29T11:51:38.588Z,21.41
2022-08-29T11:55:09.460Z,21.11
2022-08-29T11:58:48.087Z,21.49
2022-08-29T12:02:02.373Z,21.43
2022-08-29T12:05:10.036Z,21.57
2022-08-29T12:08:36.958Z,21.46
2022-08-29T12:12:20.825Z,21.17
2022-08-29T12:15:54.942Z,21.54
2022-08-29T12:19:00.060Z,21.68
2022-08-29T12:22:03.842Z,21.41
2022-08-29T12:25:43.391Z,21.61
2022-08-29T12:28:58.632Z,21.80
2022-08-29T12:32:49.248Z,21.61
2022-08-29T12:36:19.489Z,21.62
2022-08-29T12:40:03.188Z,21.90
2022-08-29T12:43:33.327Z,22.04
2022-08-29T12:46:42.219Z,21.91
2022-08-29T12:49:51.660Z,21.55
2022-08-29T12:53:05.299Z,21.81
2022-08-29T12:56:21.963Z,21.82
2022-08-29T12:59:29.000Z,22.06
2022-08-29T13:02:38.249Z,22.09
2022-08-29T13:05:42.463Z,22.23
2022-08-29T13:08:50.731Z,22.42
2022-08-29T13:12:10.376Z,22.07
2022-08-29T13:15:22.873Z,21.98
2022-08-29T13:18:28.936Z,22.22
2022-08-29T13:21:35.067Z,22.37
2022-08-29T13:24:38.892Z,22.47
2022-08-29T13:27:42.571Z,22.02
2022-08-29T13:30:48.982Z,22.13
2022-08-29T13:34:22.344Z,22.33
2022-08-29T13:37:32.840Z,22.07
2022-08-29T13:40:44.172Z,22.16
2022-08-29T13:43:50.431Z,22.26
2022-08-29T13:46:59.405Z,22.17
2022-08-29T13:50:12.205Z,22.16
2022-08-29T13:53:16.024Z,21.98
2022-08-29T13:56:32.080Z,22.05
2022-08-29T13:59:37.844Z,22.05
2022-08-29T14:02:45.245Z,22.02
2022-08-29T14:05:51.245Z,22.01
2022-08-29T14:08:56.174Z,21.97
2022-08-29T14:12:00.255Z,21.72
2022-08-29T14:15:09.487Z,21.77
2022-08-29T14:18:13.781Z,21.73
2022-08-29T14:21:20.335Z,21.65
2022-08-29T14:24:29.227Z,21.83
2022-08-29T14:27:33.395Z,21.97
2022-08-29T14:30:37.047Z,22.24
2022-08-29T14:33:40.678Z,22.37
2022-08-29T14:36:48.172Z,21.87
2022-08-29T14:39:52.380Z,21.52
2022-08-29T14:42:56.657Z,21.42
2022-08-29T14:46:00.608Z,21.88
2022-08-29T14:49:04.804Z,21.88
2022-08-29T14:52:11.964Z,22.28
2022-08-29T14:55:16.871Z,22.24
2022-08-29T14:58:20.627Z,21.96
2022-08-29T15:01:24.390Z,21.82
2022-08-29T15:04:37.126Z,21.82
2022-08-29T15:07:43.136Z,22.10
2022-08-29T15:10:46.915Z,21.94
2022-08-29T15:13:50.655Z,21.74
2022-08-29T15:16:54.589Z,21.89
2022-08-29T15:23:24.022Z,22.16
2022-08-29T15:26:28.315Z,22.20
2022-08-29T15:29:32.504Z,22.44
2022-08-29T15:32:39.075Z,22.25
2022-08-29T15:35:42.834Z,21.99
2022-08-29T15:38:50.895Z,21.96
2022-08-29T15:41:54.745Z,21.96
2022-08-29T15:44:59.386Z,21.99
2022-08-29T15:48:11.734Z,22.08
2022-08-29T15:51:15.507Z,21.96
2022-08-29T15:54:21.307Z,21.49
2022-08-29T15:57:25.685Z,21.47
2022-08-29T16:00:31.164Z,21.53
2022-08-29T16:03:35.279Z,21.52
2022-08-29T16:06:39.701Z,21.50
2022-08-29T16:09:45.564Z,21.64
2022-08-29T16:12:49.254Z,21.78
2022-08-29T16:15:53.527Z,21.67
2022-08-29T16:18:58.679Z,21.53
2022-08-29T16:22:02.484Z,21.56
2022-08-29T16:25:10.466Z,21.57
2022-08-29T16:28:15.014Z,21.51
2022-08-29T16:31:20.585Z,21.12
2022-08-29T16:34:24.400Z,20.85
2022-08-29T16:37:29.049Z,20.87
2022-08-29T16:40:34.457Z,21.03
2022-08-29T16:43:39.938Z,21.02
2022-08-29T16:46:43.627Z,20.89
2022-08-29T16:49:48.308Z,20.76
2022-08-29T16:52:52.063Z,20.73
2022-08-29T16:55:57.079Z,20.66
2022-08-29T16:59:01.986Z,20.49
2022-08-29T17:02:06.151Z,20.32
2022-08-29T17:05:10.707Z,20.25
2022-08-29T17:08:13.201Z,20.19
2022-08-29T17:11:17.086Z,20.18
2022-08-29T17:14:21.617Z,20.21
2022-08-29T17:17:25.286Z,20.14
2022-08-29T17:20:29.299Z,20.08
2022-08-29T17:23:36.142Z,20.04
2022-08-29T17:26:45.830Z,20.03
2022-08-29T17:29:49.455Z,19.96
2022-08-29T17:32:53.268Z,19.87
2022-08-29T17:35:57.316Z,19.81
2022-08-29T17:39:00.984Z,19.77
2022-08-29T17:42:07.018Z,19.70
2022-08-29T17:45:11.511Z,19.60
2022-08-29T17:48:16.445Z,19.49
2022-08-29T17:51:20.150Z,19.43
2022-08-29T17:54:26.930Z,19.28
2022-08-29T17:57:33.144Z,19.18
2022-08-29T18:00:37.333Z,19.08
2022-08-29T18:03:41.047Z,19.05
2022-08-29T18:06:45.346Z,18.92
2022-08-29T18:09:49.290Z,18.80
2022-08-29T18:12:54.484Z,18.77
2022-08-29T18:15:58.078Z,18.69
2022-08-29T18:19:02.439Z,18.59
2022-08-29T18:22:06.512Z,18.49
2022-08-29T18:25:11.515Z,18.43
2022-08-29T18:28:16.756Z,18.31
2022-08-29T18:31:20.672Z,18.22
2022-08-29T18:34:26.030Z,18.16
2022-08-29T18:37:29.806Z,18.07
2022-08-29T18:40:36.425Z,18.00
2022-08-29T18:43:44.754Z,17.93
2022-08-29T18:46:48.639Z,17.83
2022-08-29T18:50:09.651Z,17.77
2022-08-29T18:53:17.393Z,17.72
2022-08-29T18:56:21.045Z,17.65
2022-08-29T18:59:29.186Z,17.58
2022-08-29T19:02:33.082Z,17.50
2022-08-29T19:05:41.176Z,17.43
2022-08-29T19:08:45.076Z,17.41
2022-08-29T19:11:48.851Z,17.33
2022-08-29T19:14:53.955Z,17.29
2022-08-29T19:17:58.426Z,17.26
2022-08-29T19:21:06.463Z,17.19
2022-08-29T19:24:10.604Z,17.15
2022-08-29T19:27:32.788Z,17.09
2022-08-29T19:30:39.790Z,17.03
2022-08-29T19:33:43.703Z,16.98
2022-08-29T19:36:47.685Z,16.93
2022-08-29T19:39:51.623Z,16.91
2022-08-29T19:42:55.898Z,16.84
2022-08-29T19:46:03.311Z,16.80
2022-08-29T19:52:15.897Z,16.70
2022-08-29T19:55:23.375Z,16.65
2022-08-29T19:58:32.151Z,16.59
2022-08-29T20:01:37.533Z,16.55
2022-08-29T20:04:41.705Z,16.54
2022-08-29T20:07:46.998Z,16.48
2022-08-29T20:10:51.327Z,16.44
2022-08-29T20:13:58.022Z,16.39
2022-08-29T20:17:08.016Z,16.34
2022-08-29T20:20:17.683Z,16.32
2022-08-29T20:23:23.079Z,16.26
2022-08-29T20:26:30.005Z,16.25
2022-08-29T20:32:39.011Z,16.18
2022-08-29T20:36:00.125Z,16.15
2022-08-29T20:39:03.789Z,16.09
2022-08-29T20:42:08.395Z,16.04
2022-08-29T20:45:12.872Z,16.03
2022-08-29T20:48:18.334Z,16.02
2022-08-29T20:51:23.844Z,16.02
2022-08-29T20:54:27.478Z,15.98
2022-08-29T20:57:31.084Z,15.93
2022-08-29T21:00:34.990Z,15.90
2022-08-29T21:03:57.199Z,15.88
2022-08-29T21:07:04.401Z,15.83
2022-08-29T21:10:10.686Z,15.79
2022-08-29T21:13:14.835Z,15.74
2022-08-29T21:16:19.168Z,15.69
2022-08-29T21:19:27.388Z,15.67
2022-08-29T21:22:31.307Z,15.65
2022-08-29T21:25:36.021Z,15.59
2022-08-29T21:28:39.725Z,15.55
2022-08-29T21:31:43.945Z,15.51
2022-08-29T21:34:49.431Z,15.49
2022-08-29T21:37:54.019Z,15.48
2022-08-29T21:40:58.737Z,15.43
2022-08-29T21:44:02.396Z,15.41
2022-08-29T21:47:07.124Z,15.35
2022-08-29T21:50:12.843Z,15.27
2022-08-29T21:53:16.634Z,15.25
2022-08-29T21:56:20.955Z,15.15
2022-08-29T21:59:27.950Z,15.11
2022-08-29T22:02:32.593Z,15.04
2022-08-29T22:05:40.718Z,14.98
2022-08-29T22:08:48.074Z,14.92
2022-08-29T22:11:51.958Z,14.81
2022-08-29T22:15:13.164Z,14.79
2022-08-29T22:18:18.039Z,14.73
2022-08-29T22:21:23.569Z,14.66
2022-08-29T22:24:27.199Z,14.55
2022-08-29T22:27:35.735Z,14.54
2022-08-29T22:30:40.302Z,14.53
2022-08-29T22:33:44.023Z,14.53
2022-08-29T22:36:49.306Z,14.46
2022-08-29T22:39:52.912Z,14.39
2022-08-29T22:42:57.676Z,14.37
2022-08-29T22:46:20.849Z,14.35
2022-08-29T22:49:27.653Z,14.31
2022-08-29T22:52:38.520Z,14.31
2022-08-29T22:55:42.537Z,14.30
2022-08-29T22:58:49.756Z,14.28
2022-08-29T23:01:54.017Z,14.24
2022-08-29T23:04:57.787Z,14.22
2022-08-29T23:08:02.936Z,14.18
2022-08-29T23:11:07.738Z,14.18
2022-08-29T23:14:12.627Z,14.11
2022-08-29T23:17:18.642Z,14.04
2022-08-29T23:20:22.476Z,14.01
2022-08-29T23:23:34.455Z,13.95
2022-08-29T23:26:38.570Z,13.94
2022-08-29T23:29:42.386Z,13.90
2022-08-29T23:32:47.164Z,13.89
2022-08-29T23:35:52.240Z,13.82
2022-08-29T23:38:57.319Z,13.77
2022-08-29T23:42:00.955Z,13.75
2022-08-29T23:45:05.083Z,13.70
2022-08-29T23:48:08.784Z,13.66
2022-08-29T23:51:15.235Z,13.66
2022-08-29T23:54:20.384Z,13.64
2022-08-29T23:57:24.019Z,13.59
